createdAt,value
2019-01-06T00:00:15.585Z,1022.92
2019-01-06T00:00:41.738Z,1022.89
2019-01-06T00:01:07.851Z,1022.91
2019-01-06T00:01:33.963Z,1022.87
2019-01-06T00:02:00.075Z,1022.89
2019-01-06T00:02:26.177Z,1022.92
2019-01-06T00:02:52.282Z,1022.94
2019-01-06T00:03:18.391Z,1022.96
2019-01-06T00:03:45.290Z,1022.92
2019-01-06T00:04:11.395Z,1022.93
2019-01-06T00:04:37.503Z,1022.92
2019-01-06T00:05:03.601Z,1022.95
2019-01-06T00:05:29.709Z,1022.94
2019-01-06T00:05:55.822Z,1022.97
2019-01-06T00:06:21.947Z,1022.93
2019-01-06T00:06:48.051Z,1022.89
2019-01-06T00:07:14.159Z,1022.96
2019-01-06T00:07:40.293Z,1022.96
2019-01-06T00:08:06.401Z,1022.96
2019-01-06T00:08:32.506Z,1022.92
2019-01-06T00:08:58.608Z,1022.92
2019-01-06T00:09:24.718Z,1022.97
2019-01-06T00:09:50.821Z,1022.98
2019-01-06T00:10:16.930Z,1022.89
2019-01-06T00:10:43.033Z,1022.97
2019-01-06T00:11:09.153Z,1022.99
2019-01-06T00:11:35.265Z,1022.95
2019-01-06T00:12:02.902Z,1023.01
2019-01-06T00:12:28.463Z,1023
2019-01-06T00:12:54.571Z,1022.94
2019-01-06T00:13:20.699Z,1023.01
2019-01-06T00:13:46.809Z,1022.98
2019-01-06T00:14:12.927Z,1022.95
2019-01-06T00:14:39.028Z,1022.92
2019-01-06T00:15:05.136Z,1022.98
2019-01-06T00:15:31.247Z,1022.91
2019-01-06T00:15:57.352Z,1022.93
2019-01-06T00:16:23.448Z,1022.92
2019-01-06T00:16:49.562Z,1022.95
2019-01-06T00:17:15.663Z,1022.95
2019-01-06T00:17:41.773Z,1022.9
2019-01-06T00:18:07.881Z,1022.91
2019-01-06T00:18:33.986Z,1022.95
2019-01-06T00:19:00.089Z,1022.88
2019-01-06T00:19:26.197Z,1022.9
2019-01-06T00:19:52.305Z,1022.94
2019-01-06T00:20:18.404Z,1022.9
2019-01-06T00:20:44.544Z,1022.89
2019-01-06T00:21:10.648Z,1022.86
2019-01-06T00:21:36.748Z,1022.87
2019-01-06T00:22:02.860Z,1022.88
2019-01-06T00:22:28.964Z,1022.88
2019-01-06T00:22:55.073Z,1022.86
2019-01-06T00:23:21.179Z,1022.88
2019-01-06T00:23:47.286Z,1022.9
2019-01-06T00:24:13.391Z,1022.91
2019-01-06T00:24:39.495Z,1022.88
2019-01-06T00:25:05.622Z,1022.93
2019-01-06T00:25:31.723Z,1022.86
2019-01-06T00:25:57.821Z,1022.9
2019-01-06T00:26:23.929Z,1022.89
2019-01-06T00:26:50.037Z,1022.85
2019-01-06T00:27:16.137Z,1022.85
2019-01-06T00:27:42.247Z,1022.87
2019-01-06T00:28:08.351Z,1022.87
2019-01-06T00:28:34.495Z,1022.87
2019-01-06T00:29:00.603Z,1022.88
2019-01-06T00:29:26.730Z,1022.81
2019-01-06T00:29:52.833Z,1022.86
2019-01-06T00:30:18.967Z,1022.77
2019-01-06T00:30:45.071Z,1022.83
2019-01-06T00:31:11.177Z,1022.84
2019-01-06T00:31:37.284Z,1022.85
2019-01-06T00:32:03.386Z,1022.85
2019-01-06T00:32:29.518Z,1022.88
2019-01-06T00:32:55.626Z,1022.86
2019-01-06T00:33:21.733Z,1022.86
2019-01-06T00:33:47.844Z,1022.86
2019-01-06T00:34:13.950Z,1022.84
2019-01-06T00:34:40.053Z,1022.86
2019-01-06T00:35:06.155Z,1022.86
2019-01-06T00:35:32.259Z,1022.87
2019-01-06T00:35:58.367Z,1022.83
2019-01-06T00:36:24.471Z,1022.83
2019-01-06T00:36:50.578Z,1022.88
2019-01-06T00:37:16.680Z,1022.88
2019-01-06T00:37:42.818Z,1022.9
2019-01-06T00:38:08.919Z,1022.92
2019-01-06T00:38:35.027Z,1022.92
2019-01-06T00:39:01.137Z,1022.88
2019-01-06T00:39:27.263Z,1022.88
2019-01-06T00:39:53.408Z,1022.87
2019-01-06T00:40:19.512Z,1022.88
2019-01-06T00:40:45.659Z,1022.91
2019-01-06T00:41:11.764Z,1022.89
2019-01-06T00:41:37.872Z,1022.94
2019-01-06T00:42:03.969Z,1022.91
2019-01-06T00:42:30.075Z,1022.91
2019-01-06T00:42:56.186Z,1022.92
2019-01-06T00:43:22.314Z,1022.94
2019-01-06T00:43:48.417Z,1022.91
2019-01-06T00:44:14.527Z,1022.94
2019-01-06T00:44:40.631Z,1022.92
2019-01-06T00:45:06.734Z,1022.91
2019-01-06T00:45:32.849Z,1022.88
2019-01-06T00:45:58.958Z,1022.95
2019-01-06T00:46:25.064Z,1022.97
2019-01-06T00:46:51.171Z,1022.98
2019-01-06T00:47:17.274Z,1022.93
2019-01-06T00:47:43.407Z,1022.98
2019-01-06T00:48:09.513Z,1022.99
2019-01-06T00:48:35.620Z,1022.92
2019-01-06T00:49:01.731Z,1022.92
2019-01-06T00:49:27.866Z,1022.85
2019-01-06T00:49:54.008Z,1022.94
2019-01-06T00:50:20.141Z,1022.9
2019-01-06T00:50:46.248Z,1022.95
2019-01-06T00:51:12.388Z,1022.93
2019-01-06T00:51:38.527Z,1022.98
2019-01-06T00:52:04.628Z,1022.95
2019-01-06T00:52:30.736Z,1022.94
2019-01-06T00:52:56.837Z,1022.93
2019-01-06T00:53:22.971Z,1022.97
2019-01-06T00:53:49.080Z,1022.92
2019-01-06T00:54:15.174Z,1022.94
2019-01-06T00:54:41.295Z,1022.95
2019-01-06T00:55:07.399Z,1022.97
2019-01-06T00:55:33.501Z,1022.91
2019-01-06T00:55:59.605Z,1023
2019-01-06T00:56:25.739Z,1022.91
2019-01-06T00:56:51.847Z,1022.97
2019-01-06T00:57:17.953Z,1022.93
2019-01-06T00:57:44.062Z,1022.94
2019-01-06T00:58:10.191Z,1022.94
2019-01-06T00:58:36.322Z,1022.96
2019-01-06T00:59:02.425Z,1022.89
2019-01-06T00:59:28.528Z,1022.86
2019-01-06T00:59:54.628Z,1022.96
2019-01-06T01:00:20.739Z,1022.99
2019-01-06T01:00:46.875Z,1022.94
2019-01-06T01:01:13.003Z,1022.94
2019-01-06T01:01:39.104Z,1022.91
2019-01-06T01:02:05.213Z,1022.88
2019-01-06T01:02:31.330Z,1022.98
2019-01-06T01:02:57.459Z,1022.9
2019-01-06T01:03:23.563Z,1022.92
2019-01-06T01:03:49.663Z,1022.98
2019-01-06T01:04:15.767Z,1022.86
2019-01-06T01:04:41.874Z,1022.97
2019-01-06T01:05:07.979Z,1022.93
2019-01-06T01:05:34.117Z,1022.95
2019-01-06T01:06:00.224Z,1022.91
2019-01-06T01:06:26.325Z,1022.92
2019-01-06T01:06:52.435Z,1022.97
2019-01-06T01:07:18.539Z,1022.9
2019-01-06T01:07:47.684Z,1022.91
2019-01-06T01:08:13.791Z,1022.96
2019-01-06T01:08:39.893Z,1022.98
2019-01-06T01:09:05.997Z,1022.94
2019-01-06T01:09:32.103Z,1022.94
2019-01-06T01:09:58.215Z,1022.93
2019-01-06T01:10:24.318Z,1022.96
2019-01-06T01:10:50.432Z,1022.94
2019-01-06T01:11:16.535Z,1022.93
2019-01-06T01:11:42.650Z,1022.91
2019-01-06T01:12:08.748Z,1022.96
2019-01-06T01:12:34.861Z,1022.92
2019-01-06T01:13:00.963Z,1022.95
2019-01-06T01:13:27.097Z,1022.9
2019-01-06T01:13:53.201Z,1022.92
2019-01-06T01:14:19.309Z,1022.92
2019-01-06T01:14:45.409Z,1022.93
2019-01-06T01:15:11.517Z,1022.92
2019-01-06T01:15:37.648Z,1022.92
2019-01-06T01:16:03.757Z,1022.93
2019-01-06T01:16:29.856Z,1022.91
2019-01-06T01:16:55.994Z,1022.9
2019-01-06T01:17:22.102Z,1022.93
2019-01-06T01:17:48.205Z,1022.95
2019-01-06T01:18:14.306Z,1022.9
2019-01-06T01:18:40.410Z,1022.91
2019-01-06T01:19:06.522Z,1022.9
2019-01-06T01:19:32.623Z,1022.95
2019-01-06T01:19:58.729Z,1022.93
2019-01-06T01:20:24.862Z,1022.94
2019-01-06T01:20:50.989Z,1022.94
2019-01-06T01:21:17.097Z,1022.91
2019-01-06T01:21:43.207Z,1022.88
2019-01-06T01:22:09.315Z,1022.96
2019-01-06T01:22:35.421Z,1022.92
2019-01-06T01:23:01.526Z,1022.92
2019-01-06T01:23:27.635Z,1022.93
2019-01-06T01:23:53.790Z,1022.92
2019-01-06T01:24:19.918Z,1022.96
2019-01-06T01:24:46.050Z,1022.92
2019-01-06T01:25:12.154Z,1022.9
2019-01-06T01:25:38.258Z,1022.91
2019-01-06T01:26:04.370Z,1022.92
2019-01-06T01:26:30.475Z,1022.89
2019-01-06T01:26:58.561Z,1022.94
2019-01-06T01:27:24.694Z,1022.92
2019-01-06T01:27:50.826Z,1022.92
2019-01-06T01:28:16.929Z,1022.92
2019-01-06T01:28:43.065Z,1022.93
2019-01-06T01:29:09.166Z,1022.95
2019-01-06T01:29:35.278Z,1022.95
2019-01-06T01:30:01.378Z,1022.95
2019-01-06T01:30:27.511Z,1022.93
2019-01-06T01:30:53.623Z,1022.97
2019-01-06T01:31:19.731Z,1022.93
2019-01-06T01:31:45.863Z,1022.94
2019-01-06T01:32:11.973Z,1022.92
2019-01-06T01:32:38.106Z,1022.96
2019-01-06T01:33:04.210Z,1022.93
2019-01-06T01:33:30.351Z,1022.92
2019-01-06T01:33:56.462Z,1022.94
2019-01-06T01:34:22.563Z,1022.95
2019-01-06T01:34:48.674Z,1022.94
2019-01-06T01:35:14.774Z,1022.96
2019-01-06T01:35:40.889Z,1023.02
2019-01-06T01:36:06.991Z,1023.02
2019-01-06T01:36:33.098Z,1023.03
2019-01-06T01:36:59.272Z,1023.02
2019-01-06T01:37:25.378Z,1023.04
2019-01-06T01:37:51.483Z,1023.05
2019-01-06T01:38:17.587Z,1023.02
2019-01-06T01:38:43.694Z,1023.06
2019-01-06T01:39:09.823Z,1023.08
2019-01-06T01:39:35.927Z,1023.03
2019-01-06T01:40:02.031Z,1023.14
2019-01-06T01:40:28.171Z,1023.08
2019-01-06T01:40:54.282Z,1023.08
2019-01-06T01:41:20.435Z,1023.1
2019-01-06T01:41:46.535Z,1023.1
2019-01-06T01:42:12.648Z,1023.08
2019-01-06T01:42:38.754Z,1023.12
2019-01-06T01:43:04.860Z,1023.11
2019-01-06T01:43:30.965Z,1023.11
2019-01-06T01:43:57.068Z,1023.12
2019-01-06T01:44:23.171Z,1023.12
2019-01-06T01:44:49.283Z,1023.12
2019-01-06T01:45:15.383Z,1023.14
2019-01-06T01:45:41.519Z,1023.13
2019-01-06T01:46:07.627Z,1023.17
2019-01-06T01:46:33.738Z,1023.13
2019-01-06T01:46:59.836Z,1023.13
2019-01-06T01:47:25.948Z,1023.13
2019-01-06T01:47:52.055Z,1023.15
2019-01-06T01:48:18.222Z,1023.12
2019-01-06T01:48:44.332Z,1023.07
2019-01-06T01:49:10.435Z,1023.07
2019-01-06T01:49:36.542Z,1023.09
2019-01-06T01:50:02.651Z,1023.12
2019-01-06T01:50:28.759Z,1023.1
2019-01-06T01:50:54.883Z,1023.12
2019-01-06T01:51:20.991Z,1023.12
2019-01-06T01:51:47.094Z,1023.13
2019-01-06T01:52:13.209Z,1023.12
2019-01-06T01:52:39.307Z,1023.06
2019-01-06T01:53:05.432Z,1023.11
2019-01-06T01:53:31.555Z,1023.09
2019-01-06T01:53:57.666Z,1023.1
2019-01-06T01:54:23.767Z,1023.08
2019-01-06T01:54:49.881Z,1023.06
2019-01-06T01:55:15.986Z,1023.06
2019-01-06T01:55:42.198Z,1023.09
2019-01-06T01:56:08.309Z,1023.06
2019-01-06T01:56:34.418Z,1023.07
2019-01-06T01:57:00.522Z,1023.06
2019-01-06T01:57:26.629Z,1023.01
2019-01-06T01:57:52.736Z,1023.03
2019-01-06T01:58:18.840Z,1023.1
2019-01-06T01:58:44.950Z,1023.03
2019-01-06T01:59:11.045Z,1023.03
2019-01-06T01:59:37.151Z,1023.06
2019-01-06T02:00:03.258Z,1023.02
2019-01-06T02:00:29.367Z,1023.01
2019-01-06T02:00:55.478Z,1023.03
2019-01-06T02:01:21.585Z,1023.03
2019-01-06T02:01:47.693Z,1023.05
2019-01-06T02:02:13.823Z,1023.02
2019-01-06T02:02:39.930Z,1023
2019-01-06T02:03:06.036Z,1023.02
2019-01-06T02:03:32.149Z,1022.99
2019-01-06T02:03:58.248Z,1023.04
2019-01-06T02:04:24.355Z,1023.06
2019-01-06T02:04:50.456Z,1023.03
2019-01-06T02:05:16.555Z,1023.03
2019-01-06T02:05:42.663Z,1023.02
2019-01-06T02:06:08.782Z,1023.02
2019-01-06T02:06:34.886Z,1023.05
2019-01-06T02:07:00.991Z,1023.06
2019-01-06T02:07:27.106Z,1023.03
2019-01-06T02:07:53.206Z,1023.05
2019-01-06T02:08:19.312Z,1023.04
2019-01-06T02:08:45.424Z,1023.09
2019-01-06T02:09:11.527Z,1023.07
2019-01-06T02:09:37.634Z,1023.1
2019-01-06T02:10:03.739Z,1023.04
2019-01-06T02:10:29.849Z,1023.08
2019-01-06T02:10:55.984Z,1023.08
2019-01-06T02:11:22.095Z,1023.07
2019-01-06T02:11:48.197Z,1023.06
2019-01-06T02:12:14.301Z,1023.12
2019-01-06T02:12:40.404Z,1023.1
2019-01-06T02:13:06.514Z,1023.04
2019-01-06T02:13:32.614Z,1023.14
2019-01-06T02:13:58.726Z,1023.14
2019-01-06T02:14:24.852Z,1023.07
2019-01-06T02:14:50.965Z,1023.12
2019-01-06T02:15:17.072Z,1023.03
2019-01-06T02:15:43.175Z,1023.14
2019-01-06T02:16:09.280Z,1023.1
2019-01-06T02:16:35.392Z,1023.11
2019-01-06T02:17:01.524Z,1023.11
2019-01-06T02:17:27.638Z,1023.14
2019-01-06T02:17:53.738Z,1023.07
2019-01-06T02:18:19.843Z,1023.13
2019-01-06T02:18:45.956Z,1023.17
2019-01-06T02:19:12.093Z,1023.14
2019-01-06T02:19:38.192Z,1023.14
2019-01-06T02:20:04.301Z,1023.15
2019-01-06T02:20:30.428Z,1023.16
2019-01-06T02:20:56.532Z,1023.12
2019-01-06T02:21:22.665Z,1023.17
2019-01-06T02:21:48.788Z,1023.17
2019-01-06T02:22:14.896Z,1023.13
2019-01-06T02:22:41.000Z,1023.13
2019-01-06T02:23:07.111Z,1023.1
2019-01-06T02:23:33.209Z,1023.17
2019-01-06T02:23:59.346Z,1023.12
2019-01-06T02:24:25.456Z,1023.16
2019-01-06T02:24:51.566Z,1023.17
2019-01-06T02:25:17.668Z,1023.17
2019-01-06T02:25:43.807Z,1023.17
2019-01-06T02:26:09.902Z,1023.2
2019-01-06T02:26:36.010Z,1023.19
2019-01-06T02:27:02.109Z,1023.18
2019-01-06T02:27:28.213Z,1023.16
2019-01-06T02:27:54.321Z,1023.21
2019-01-06T02:28:20.426Z,1023.21
2019-01-06T02:28:46.558Z,1023.21
2019-01-06T02:29:12.663Z,1023.18
2019-01-06T02:29:38.767Z,1023.21
2019-01-06T02:30:04.906Z,1023.21
2019-01-06T02:30:31.078Z,1023.2
2019-01-06T02:30:57.184Z,1023.21
2019-01-06T02:31:23.348Z,1023.18
2019-01-06T02:31:49.451Z,1023.13
2019-01-06T02:32:15.585Z,1023.19
2019-01-06T02:32:41.690Z,1023.18
2019-01-06T02:33:07.856Z,1023.21
2019-01-06T02:33:33.988Z,1023.2
2019-01-06T02:34:00.103Z,1023.21
2019-01-06T02:34:26.256Z,1023.18
2019-01-06T02:34:52.427Z,1023.19
2019-01-06T02:35:18.532Z,1023.21
2019-01-06T02:35:44.637Z,1023.18
2019-01-06T02:36:10.770Z,1023.23
2019-01-06T02:36:36.878Z,1023.18
2019-01-06T02:37:03.010Z,1023.17
2019-01-06T02:37:29.150Z,1023.21
2019-01-06T02:37:55.251Z,1023.17
2019-01-06T02:38:21.392Z,1023.21
2019-01-06T02:38:47.518Z,1023.16
2019-01-06T02:39:13.628Z,1023.17
2019-01-06T02:39:39.762Z,1023.2
2019-01-06T02:40:05.896Z,1023.17
2019-01-06T02:40:32.025Z,1023.24
2019-01-06T02:40:58.127Z,1023.22
2019-01-06T02:41:24.259Z,1023.2
2019-01-06T02:41:50.398Z,1023.22
2019-01-06T02:42:16.532Z,1023.2
2019-01-06T02:42:42.634Z,1023.23
2019-01-06T02:43:08.748Z,1023.22
2019-01-06T02:43:34.896Z,1023.22
2019-01-06T02:44:01.008Z,1023.26
2019-01-06T02:44:27.217Z,1023.25
2019-01-06T02:44:53.325Z,1023.19
2019-01-06T02:45:19.426Z,1023.21
2019-01-06T02:45:45.540Z,1023.21
2019-01-06T02:46:11.643Z,1023.27
2019-01-06T02:46:37.747Z,1023.23
2019-01-06T02:47:03.847Z,1023.25
2019-01-06T02:47:29.955Z,1023.24
2019-01-06T02:47:56.068Z,1023.26
2019-01-06T02:48:22.165Z,1023.27
2019-01-06T02:48:48.276Z,1023.27
2019-01-06T02:49:14.419Z,1023.28
2019-01-06T02:49:40.583Z,1023.28
2019-01-06T02:50:06.694Z,1023.24
2019-01-06T02:50:32.821Z,1023.25
2019-01-06T02:50:58.958Z,1023.21
2019-01-06T02:51:25.070Z,1023.24
2019-01-06T02:51:51.235Z,1023.23
2019-01-06T02:52:17.355Z,1023.24
2019-01-06T02:52:43.468Z,1023.22
2019-01-06T02:53:09.565Z,1023.23
2019-01-06T02:53:35.716Z,1023.25
2019-01-06T02:54:01.826Z,1023.23
2019-01-06T02:54:27.931Z,1023.25
2019-01-06T02:54:54.032Z,1023.27
2019-01-06T02:55:20.140Z,1023.24
2019-01-06T02:55:46.245Z,1023.25
2019-01-06T02:56:12.345Z,1023.28
2019-01-06T02:56:38.458Z,1023.27
2019-01-06T02:57:04.620Z,1023.24
2019-01-06T02:57:30.725Z,1023.26
2019-01-06T02:57:56.833Z,1023.29
2019-01-06T02:58:22.965Z,1023.24
2019-01-06T02:58:49.134Z,1023.22
2019-01-06T02:59:15.250Z,1023.26
2019-01-06T02:59:41.344Z,1023.23
2019-01-06T03:00:07.441Z,1023.27
2019-01-06T03:00:33.552Z,1023.3
2019-01-06T03:00:59.695Z,1023.27
2019-01-06T03:01:25.799Z,1023.23
2019-01-06T03:01:51.945Z,1023.28
2019-01-06T03:02:18.058Z,1023.27
2019-01-06T03:02:44.159Z,1023.25
2019-01-06T03:03:10.272Z,1023.28
2019-01-06T03:03:36.377Z,1023.25
2019-01-06T03:04:02.482Z,1023.25
2019-01-06T03:04:28.624Z,1023.29
2019-01-06T03:04:54.765Z,1023.27
2019-01-06T03:05:20.875Z,1023.32
2019-01-06T03:05:47.011Z,1023.27
2019-01-06T03:06:13.121Z,1023.26
2019-01-06T03:06:39.255Z,1023.3
2019-01-06T03:07:05.419Z,1023.28
2019-01-06T03:07:31.525Z,1023.3
2019-01-06T03:07:57.658Z,1023.29
2019-01-06T03:08:23.789Z,1023.29
2019-01-06T03:08:49.910Z,1023.27
2019-01-06T03:09:16.020Z,1023.25
2019-01-06T03:09:42.127Z,1023.29
2019-01-06T03:10:08.283Z,1023.32
2019-01-06T03:10:34.394Z,1023.24
2019-01-06T03:11:00.498Z,1023.3
2019-01-06T03:11:26.598Z,1023.25
2019-01-06T03:11:52.704Z,1023.24
2019-01-06T03:12:18.836Z,1023.28
2019-01-06T03:12:44.948Z,1023.26
2019-01-06T03:13:11.059Z,1023.31
2019-01-06T03:13:37.174Z,1023.26
2019-01-06T03:14:03.274Z,1023.28
2019-01-06T03:14:29.416Z,1023.22
2019-01-06T03:14:55.486Z,1023.26
2019-01-06T03:15:21.616Z,1023.22
2019-01-06T03:15:47.782Z,1023.24
2019-01-06T03:16:13.889Z,1023.22
2019-01-06T03:16:39.993Z,1023.26
2019-01-06T03:17:06.101Z,1023.27
2019-01-06T03:17:32.213Z,1023.26
2019-01-06T03:17:58.339Z,1023.18
2019-01-06T03:18:24.453Z,1023.24
2019-01-06T03:18:50.578Z,1023.25
2019-01-06T03:19:16.683Z,1023.21
2019-01-06T03:19:42.790Z,1023.24
2019-01-06T03:20:08.893Z,1023.23
2019-01-06T03:20:35.025Z,1023.13
2019-01-06T03:21:01.132Z,1023.2
2019-01-06T03:21:27.276Z,1023.22
2019-01-06T03:21:53.379Z,1023.17
2019-01-06T03:22:19.489Z,1023.23
2019-01-06T03:22:45.620Z,1023.14
2019-01-06T03:23:11.726Z,1023.22
2019-01-06T03:23:37.894Z,1023.21
2019-01-06T03:24:03.996Z,1023.21
2019-01-06T03:24:30.126Z,1023.16
2019-01-06T03:24:56.234Z,1023.23
2019-01-06T03:25:22.336Z,1023.14
2019-01-06T03:25:48.444Z,1023.21
2019-01-06T03:26:14.576Z,1023.2
2019-01-06T03:26:40.687Z,1023.18
2019-01-06T03:27:06.794Z,1023.16
2019-01-06T03:27:32.931Z,1023.18
2019-01-06T03:27:59.042Z,1023.21
2019-01-06T03:28:25.140Z,1023.22
2019-01-06T03:28:51.305Z,1023.17
2019-01-06T03:29:17.433Z,1023.17
2019-01-06T03:29:43.548Z,1023.2
2019-01-06T03:30:09.674Z,1023.19
2019-01-06T03:30:35.838Z,1023.14
2019-01-06T03:31:02.021Z,1023.15
2019-01-06T03:31:28.176Z,1023.18
2019-01-06T03:31:54.299Z,1023.18
2019-01-06T03:32:20.435Z,1023.15
2019-01-06T03:32:46.594Z,1023.17
2019-01-06T03:33:12.760Z,1023.23
2019-01-06T03:33:38.924Z,1023.16
2019-01-06T03:34:05.091Z,1023.2
2019-01-06T03:34:31.196Z,1023.2
2019-01-06T03:34:57.332Z,1023.16
2019-01-06T03:35:23.433Z,1023.13
2019-01-06T03:35:49.570Z,1023.14
2019-01-06T03:36:15.701Z,1023.18
2019-01-06T03:36:41.803Z,1023.11
2019-01-06T03:37:07.912Z,1023.13
2019-01-06T03:37:34.020Z,1023.16
2019-01-06T03:38:00.155Z,1023.14
2019-01-06T03:38:26.287Z,1023.16
2019-01-06T03:38:52.397Z,1023.14
2019-01-06T03:39:18.501Z,1023.14
2019-01-06T03:39:44.655Z,1023.1
2019-01-06T03:40:10.763Z,1023.17
2019-01-06T03:40:36.872Z,1023.17
2019-01-06T03:41:02.974Z,1023.12
2019-01-06T03:41:29.083Z,1023.09
2019-01-06T03:41:55.216Z,1023.13
2019-01-06T03:42:21.319Z,1023.15
2019-01-06T03:42:47.429Z,1023.13
2019-01-06T03:43:13.558Z,1023.13
2019-01-06T03:43:39.658Z,1023.14
2019-01-06T03:44:05.834Z,1023.12
2019-01-06T03:44:31.963Z,1023.15
2019-01-06T03:44:58.101Z,1023.16
2019-01-06T03:45:24.233Z,1023.2
2019-01-06T03:45:50.335Z,1023.17
2019-01-06T03:46:16.443Z,1023.15
2019-01-06T03:46:42.630Z,1023.16
2019-01-06T03:47:08.713Z,1023.13
2019-01-06T03:47:34.821Z,1023.17
2019-01-06T03:48:00.982Z,1023.17
2019-01-06T03:48:27.083Z,1023.18
2019-01-06T03:48:53.196Z,1023.18
2019-01-06T03:49:19.292Z,1023.14
2019-01-06T03:49:45.429Z,1023.17
2019-01-06T03:50:11.567Z,1023.15
2019-01-06T03:50:37.702Z,1023.21
2019-01-06T03:51:03.811Z,1023.17
2019-01-06T03:51:29.953Z,1023.16
2019-01-06T03:51:56.077Z,1023.15
2019-01-06T03:52:22.188Z,1023.15
2019-01-06T03:52:48.311Z,1023.14
2019-01-06T03:53:14.447Z,1023.15
2019-01-06T03:53:40.552Z,1023.17
2019-01-06T03:54:06.662Z,1023.18
2019-01-06T03:54:32.768Z,1023.16
2019-01-06T03:54:58.885Z,1023.16
2019-01-06T03:55:24.984Z,1023.16
2019-01-06T03:55:51.087Z,1023.17
2019-01-06T03:56:17.219Z,1023.12
2019-01-06T03:56:43.349Z,1023.13
2019-01-06T03:57:09.453Z,1023.11
2019-01-06T03:57:35.586Z,1023.15
2019-01-06T03:58:01.693Z,1023.11
2019-01-06T03:58:27.801Z,1023.1
2019-01-06T03:58:53.908Z,1023.12
2019-01-06T03:59:20.017Z,1023.14
2019-01-06T03:59:46.121Z,1023.12
2019-01-06T04:00:12.391Z,1023.15
2019-01-06T04:00:38.500Z,1023.13
2019-01-06T04:01:04.636Z,1023.11
2019-01-06T04:01:30.741Z,1023.12
2019-01-06T04:01:56.850Z,1023.12
2019-01-06T04:02:22.953Z,1023.07
2019-01-06T04:02:49.061Z,1023.1
2019-01-06T04:03:15.162Z,1023.06
2019-01-06T04:03:41.270Z,1023.09
2019-01-06T04:04:07.377Z,1023.08
2019-01-06T04:04:33.509Z,1023.09
2019-01-06T04:04:59.619Z,1023.04
2019-01-06T04:05:25.716Z,1023.11
2019-01-06T04:05:51.840Z,1023.05
2019-01-06T04:06:17.950Z,1023.04
2019-01-06T04:06:44.054Z,1023.05
2019-01-06T04:07:10.254Z,1023.06
2019-01-06T04:07:36.363Z,1023.09
2019-01-06T04:08:02.465Z,1023.06
2019-01-06T04:08:28.607Z,1023.07
2019-01-06T04:08:54.709Z,1023.15
2019-01-06T04:09:20.822Z,1023.09
2019-01-06T04:09:46.923Z,1023.08
2019-01-06T04:10:13.054Z,1023.02
2019-01-06T04:10:39.161Z,1023.06
2019-01-06T04:11:05.296Z,1023.08
2019-01-06T04:11:32.401Z,1023.05
2019-01-06T04:11:58.537Z,1023.04
2019-01-06T04:12:24.643Z,1023.06
2019-01-06T04:12:50.748Z,1023.03
2019-01-06T04:13:16.860Z,1023.08
2019-01-06T04:13:42.960Z,1023.08
2019-01-06T04:14:09.129Z,1023.07
2019-01-06T04:14:35.343Z,1023.07
2019-01-06T04:15:01.481Z,1023.08
2019-01-06T04:15:27.612Z,1023.04
2019-01-06T04:15:53.721Z,1023.03
2019-01-06T04:16:19.823Z,1023.07
2019-01-06T04:16:45.933Z,1023.02
2019-01-06T04:17:12.046Z,1023.05
2019-01-06T04:17:38.147Z,1023.06
2019-01-06T04:18:04.285Z,1023.04
2019-01-06T04:18:30.492Z,1023.03
2019-01-06T04:18:56.724Z,1023.06
2019-01-06T04:19:22.860Z,1023.03
2019-01-06T04:19:48.970Z,1023.03
2019-01-06T04:20:15.173Z,1023.06
2019-01-06T04:20:41.309Z,1023.05
2019-01-06T04:21:07.403Z,1023.05
2019-01-06T04:21:33.542Z,1023.05
2019-01-06T04:21:59.674Z,1023.04
2019-01-06T04:22:25.771Z,1023.07
2019-01-06T04:22:51.871Z,1023.05
2019-01-06T04:23:17.990Z,1023.09
2019-01-06T04:23:44.115Z,1023.08
2019-01-06T04:24:10.247Z,1023.06
2019-01-06T04:24:36.356Z,1023.06
2019-01-06T04:25:02.490Z,1023.14
2019-01-06T04:25:28.599Z,1023.07
2019-01-06T04:25:54.734Z,1023.08
2019-01-06T04:26:20.843Z,1023.06
2019-01-06T04:26:46.971Z,1023.07
2019-01-06T04:27:13.114Z,1023.06
2019-01-06T04:27:39.219Z,1023.09
2019-01-06T04:28:05.329Z,1023.05
2019-01-06T04:28:31.431Z,1023.07
2019-01-06T04:28:57.571Z,1023.04
2019-01-06T04:29:23.674Z,1023.09
2019-01-06T04:29:49.770Z,1023.04
2019-01-06T04:30:15.912Z,1023.07
2019-01-06T04:30:42.017Z,1023.04
2019-01-06T04:31:08.191Z,1023.05
2019-01-06T04:31:34.329Z,1023.05
2019-01-06T04:32:00.425Z,1023.04
2019-01-06T04:32:26.533Z,1023.02
2019-01-06T04:32:52.641Z,1023.05
2019-01-06T04:33:18.745Z,1023
2019-01-06T04:33:44.854Z,1023.02
2019-01-06T04:34:10.991Z,1023.04
2019-01-06T04:34:37.096Z,1022.99
2019-01-06T04:35:03.199Z,1023.03
2019-01-06T04:35:29.307Z,1023.04
2019-01-06T04:35:55.411Z,1023.01
2019-01-06T04:36:21.524Z,1023.01
2019-01-06T04:36:47.624Z,1022.98
2019-01-06T04:37:13.733Z,1023.02
2019-01-06T04:37:39.831Z,1023.02
2019-01-06T04:38:05.938Z,1023.03
2019-01-06T04:38:32.043Z,1023.03
2019-01-06T04:38:58.153Z,1023.01
2019-01-06T04:39:24.255Z,1023.04
2019-01-06T04:39:50.367Z,1022.96
2019-01-06T04:40:16.464Z,1023.01
2019-01-06T04:40:42.565Z,1023
2019-01-06T04:41:08.694Z,1023.01
2019-01-06T04:41:34.799Z,1022.98
2019-01-06T04:42:00.912Z,1023.02
2019-01-06T04:42:27.013Z,1022.99
2019-01-06T04:42:53.119Z,1023.02
2019-01-06T04:43:19.260Z,1022.98
2019-01-06T04:43:45.392Z,1023.01
2019-01-06T04:44:11.530Z,1023.05
2019-01-06T04:44:37.646Z,1023.05
2019-01-06T04:45:03.761Z,1023.02
2019-01-06T04:45:29.865Z,1023.04
2019-01-06T04:45:55.969Z,1023.01
2019-01-06T04:46:22.108Z,1023.04
2019-01-06T04:46:48.234Z,1023.03
2019-01-06T04:47:14.396Z,1023.02
2019-01-06T04:47:40.533Z,1023.02
2019-01-06T04:48:06.681Z,1023.03
2019-01-06T04:48:32.800Z,1022.95
2019-01-06T04:48:58.914Z,1023
2019-01-06T04:49:25.011Z,1022.98
2019-01-06T04:49:51.189Z,1023.05
2019-01-06T04:50:17.333Z,1023.02
2019-01-06T04:50:43.448Z,1023.05
2019-01-06T04:51:09.574Z,1023.02
2019-01-06T04:51:35.695Z,1023.06
2019-01-06T04:52:01.818Z,1023.01
2019-01-06T04:52:27.928Z,1023
2019-01-06T04:52:54.083Z,1023.05
2019-01-06T04:53:20.225Z,1023.06
2019-01-06T04:53:46.329Z,1023.02
2019-01-06T04:54:12.432Z,1023.05
2019-01-06T04:54:38.540Z,1023.03
2019-01-06T04:55:04.722Z,1023.03
2019-01-06T04:55:30.847Z,1023.04
2019-01-06T04:55:56.959Z,1023.05
2019-01-06T04:56:23.063Z,1023.03
2019-01-06T04:56:49.163Z,1023.05
2019-01-06T04:57:15.305Z,1023.06
2019-01-06T04:57:41.495Z,1023.04
2019-01-06T04:58:07.594Z,1023.07
2019-01-06T04:58:33.699Z,1023.07
2019-01-06T04:58:59.836Z,1023.02
2019-01-06T04:59:25.942Z,1023.07
2019-01-06T04:59:52.049Z,1023.08
2019-01-06T05:00:18.181Z,1023.07
2019-01-06T05:00:44.317Z,1023.08
2019-01-06T05:01:10.457Z,1023.11
2019-01-06T05:01:36.616Z,1023.04
2019-01-06T05:02:02.719Z,1023.08
2019-01-06T05:02:28.831Z,1023.07
2019-01-06T05:02:54.963Z,1023.09
2019-01-06T05:03:21.114Z,1023.06
2019-01-06T05:03:47.226Z,1023.02
2019-01-06T05:04:13.334Z,1023.02
2019-01-06T05:04:39.454Z,1023.1
2019-01-06T05:05:05.558Z,1023.04
2019-01-06T05:05:31.661Z,1023.09
2019-01-06T05:05:57.796Z,1023.06
2019-01-06T05:06:23.911Z,1023.05
2019-01-06T05:06:50.043Z,1023.09
2019-01-06T05:07:16.143Z,1023.05
2019-01-06T05:07:42.281Z,1023.04
2019-01-06T05:08:08.381Z,1023.05
2019-01-06T05:08:34.519Z,1023.1
2019-01-06T05:09:00.629Z,1023.09
2019-01-06T05:09:26.736Z,1023.11
2019-01-06T05:09:52.847Z,1023.07
2019-01-06T05:10:18.974Z,1023.08
2019-01-06T05:10:45.085Z,1023.04
2019-01-06T05:11:11.187Z,1023.06
2019-01-06T05:11:37.300Z,1023.1
2019-01-06T05:12:03.474Z,1023.08
2019-01-06T05:12:29.586Z,1023.07
2019-01-06T05:12:55.689Z,1023.07
2019-01-06T05:13:21.788Z,1023.09
2019-01-06T05:13:47.894Z,1023.11
2019-01-06T05:14:14.027Z,1023.1
2019-01-06T05:14:40.138Z,1023.14
2019-01-06T05:15:06.247Z,1023.14
2019-01-06T05:15:32.380Z,1023.1
2019-01-06T05:15:58.485Z,1023.12
2019-01-06T05:16:24.589Z,1023.13
2019-01-06T05:16:50.723Z,1023.12